createdAt,value
2023-04-28T00:01:29.675Z,98491.63
2023-04-28T00:06:31.537Z,98494.13
2023-04-28T00:11:33.409Z,98482.00
2023-04-28T00:16:35.327Z,98481.47
2023-04-28T00:21:37.180Z,98477.53
2023-04-28T00:26:38.932Z,98472.00
2023-04-28T00:31:41.111Z,98469.63
2023-04-28T00:36:42.948Z,98458.16
2023-04-28T00:41:44.715Z,98449.59
2023-04-28T00:46:46.535Z,98442.63
2023-04-28T00:51:48.472Z,98426.28
2023-04-28T00:56:50.636Z,98423.91
2023-04-28T01:01:52.654Z,98414.88
2023-04-28T01:06:55.998Z,98405.75
2023-04-28T01:11:58.503Z,98406.94
2023-04-28T01:17:16.510Z,98405.09
2023-04-28T01:22:18.838Z,98397.66
2023-04-28T01:27:23.464Z,98400.84
2023-04-28T01:32:25.274Z,98401.81
2023-04-28T01:37:27.063Z,98386.38
2023-04-28T01:42:29.094Z,98385.75
2023-04-28T01:47:31.622Z,98379.78
2023-04-28T01:52:33.459Z,98375.78
2023-04-28T01:57:37.102Z,98374.41
2023-04-28T02:02:39.790Z,98371.91
2023-04-28T02:07:41.677Z,98366.50
2023-04-28T02:12:43.456Z,98365.72
2023-04-28T02:17:45.357Z,98357.03
2023-04-28T02:22:47.275Z,98357.03
2023-04-28T02:27:49.111Z,98351.63
2023-04-28T02:32:51.482Z,98344.66
2023-04-28T02:37:53.276Z,98350.50
2023-04-28T02:42:55.128Z,98338.59
2023-04-28T02:47:56.952Z,98335.44
2023-04-28T02:52:58.738Z,98330.94
2023-04-28T02:58:00.713Z,98326.03
2023-04-28T03:03:02.826Z,98329.19
2023-04-28T03:08:05.005Z,98311.88
2023-04-28T03:13:07.248Z,98318.84
2023-04-28T03:18:09.657Z,98298.84
2023-04-28T03:23:11.641Z,98292.53
2023-04-28T03:28:13.660Z,98290.47
2023-04-28T03:33:15.562Z,98286.09
2023-04-28T03:38:17.839Z,98288.47
2023-04-28T03:43:19.952Z,98285.69
2023-04-28T03:48:41.187Z,98288.81
2023-04-28T03:53:43.118Z,98285.16
2023-04-28T03:58:45.553Z,98289.91
2023-04-28T04:03:47.494Z,98290.03
2023-04-28T04:08:49.583Z,98271.47
2023-04-28T04:13:51.382Z,98273.97
2023-04-28T04:18:55.560Z,98266.66
2023-04-28T04:24:16.740Z,98256.84
2023-04-28T04:29:19.144Z,98241.88
2023-04-28T04:34:21.209Z,98239.09
2023-04-28T04:39:23.052Z,98250.31
2023-04-28T04:44:27.524Z,98239.31
2023-04-28T04:49:29.791Z,98235.50
2023-04-28T04:54:31.856Z,98244.72
2023-04-28T04:59:33.741Z,98241.59
2023-04-28T05:04:42.403Z,98236.63
2023-04-28T05:09:45.881Z,98232.81
2023-04-28T05:14:47.789Z,98222.69
2023-04-28T05:19:50.846Z,98215.03
2023-04-28T05:24:53.526Z,98217.72
2023-04-28T05:29:55.654Z,98211.00
2023-04-28T05:34:57.513Z,98199.28
2023-04-28T05:39:59.351Z,98201.09
2023-04-28T05:45:01.179Z,98196.63
2023-04-28T05:50:03.713Z,98191.22
2023-04-28T05:55:06.051Z,98184.00
2023-04-28T06:00:09.514Z,98184.06
2023-04-28T06:05:14.567Z,98196.97
2023-04-28T06:10:17.685Z,98200.06
2023-04-28T06:15:19.659Z,98203.78
2023-04-28T06:20:21.829Z,98208.78
2023-04-28T06:25:24.268Z,98200.72
2023-04-28T06:30:26.167Z,98189.59
2023-04-28T06:35:29.869Z,98188.00
2023-04-28T06:40:32.083Z,98180.56
2023-04-28T06:45:36.069Z,98183.94
2023-04-28T06:50:38.026Z,98192.34
2023-04-28T06:55:42.614Z,98183.38
2023-04-28T07:00:44.597Z,98186.56
2023-04-28T07:05:46.561Z,98169.53
2023-04-28T07:10:48.680Z,98156.72
2023-04-28T07:15:50.520Z,98158.16
2023-04-28T07:20:53.050Z,98164.22
2023-04-28T07:25:55.233Z,98152.31
2023-04-28T07:30:57.616Z,98150.34
2023-04-28T07:35:59.562Z,98145.31
2023-04-28T07:41:01.968Z,98146.34
2023-04-28T07:46:03.850Z,98134.91
2023-04-28T07:51:05.738Z,98136.69
2023-04-28T07:56:07.697Z,98133.06
2023-04-28T08:01:09.504Z,98127.00
2023-04-28T08:06:11.313Z,98119.34
2023-04-28T08:11:13.160Z,98114.88
2023-04-28T08:16:15.563Z,98113.50
2023-04-28T08:21:17.780Z,98116.00
2023-04-28T08:26:19.788Z,98105.22
2023-04-28T08:31:21.652Z,98113.06
2023-04-28T08:36:25.224Z,98112.69
2023-04-28T08:41:30.083Z,98112.31
2023-04-28T08:46:33.548Z,98088.03
2023-04-28T08:51:43.962Z,98089.56
2023-04-28T08:56:46.262Z,98084.06
2023-04-28T09:01:51.133Z,98080.84
2023-04-28T09:06:53.061Z,98087.00
2023-04-28T09:12:02.655Z,98083.75
2023-04-28T09:17:14.623Z,98063.41
2023-04-28T09:22:26.119Z,98081.34
2023-04-28T09:27:28.961Z,98075.84
2023-04-28T09:32:31.177Z,98077.78
2023-04-28T09:37:34.320Z,98070.72
2023-04-28T09:43:02.397Z,98063.25
2023-04-28T09:54:57.335Z,98062.47
2023-04-28T09:59:59.784Z,98069.97
2023-04-28T10:05:02.308Z,98058.69
2023-04-28T10:10:05.574Z,98057.94
2023-04-28T10:15:09.710Z,98065.38
2023-04-28T10:20:12.010Z,98076.00
2023-04-28T10:25:32.641Z,98080.78
2023-04-28T10:30:35.299Z,98081.66
2023-04-28T10:35:37.627Z,98098.94
2023-04-28T10:40:45.103Z,98086.06
2023-04-28T10:45:56.065Z,98083.78
2023-04-28T10:51:04.724Z,98097.06
2023-04-28T10:56:07.178Z,98096.69
2023-04-28T11:01:25.183Z,98093.56
2023-04-28T11:06:37.285Z,98100.59
2023-04-28T11:11:40.615Z,98088.84
2023-04-28T11:16:51.795Z,98101.34
2023-04-28T11:21:56.669Z,98100.88
2023-04-28T11:26:59.394Z,98114.00
2023-04-28T11:32:01.491Z,98124.03
2023-04-28T11:37:03.981Z,98120.47
2023-04-28T11:42:12.081Z,98107.91
2023-04-28T11:47:13.943Z,98108.69
2023-04-28T11:52:15.685Z,98118.09
2023-04-28T11:57:19.505Z,98102.97
2023-04-28T12:02:29.535Z,98100.31
2023-04-28T12:07:42.483Z,98084.34
2023-04-28T12:12:51.856Z,98084.78
2023-04-28T12:17:54.833Z,98086.41
2023-04-28T12:22:57.137Z,98080.94
2023-04-28T12:28:08.470Z,98063.81
2023-04-28T12:33:27.599Z,98061.44
2023-04-28T12:38:30.060Z,98070.84
2023-04-28T12:43:32.207Z,98074.72
2023-04-28T12:48:34.988Z,98073.13
2023-04-28T12:53:36.778Z,98071.56
2023-04-28T12:58:38.602Z,98070.75
2023-04-28T13:03:40.595Z,98059.06
2023-04-28T13:08:43.094Z,98053.56
2023-04-28T13:13:45.290Z,98045.81
2023-04-28T13:18:49.040Z,98038.75
2023-04-28T13:23:50.989Z,98035.66
2023-04-28T13:28:52.930Z,98030.19
2023-04-28T13:33:54.775Z,98022.41
2023-04-28T13:38:56.768Z,98007.56
2023-04-28T13:43:58.727Z,98007.56
2023-04-28T13:49:00.573Z,98007.53
2023-04-28T13:54:08.275Z,97996.63
2023-04-28T13:59:10.127Z,97993.47
2023-04-28T14:04:11.978Z,97986.03
2023-04-28T14:09:14.145Z,97985.69
2023-04-28T14:14:16.054Z,97992.69
2023-04-28T14:19:18.707Z,97976.69
2023-04-28T14:24:20.573Z,97971.66
2023-04-28T14:29:22.372Z,97973.22
2023-04-28T14:34:24.819Z,97967.78
2023-04-28T14:39:26.615Z,97955.31
2023-04-28T14:44:28.487Z,97951.41
2023-04-28T14:49:30.802Z,97946.00
2023-04-28T14:54:32.829Z,97941.69
2023-04-28T14:59:35.647Z,97935.06
2023-04-28T15:04:39.000Z,97925.34
2023-04-28T15:09:40.930Z,97926.88
2023-04-28T15:14:42.705Z,97920.63
2023-04-28T15:19:44.560Z,97927.69
2023-04-28T15:24:46.663Z,97922.22
2023-04-28T15:29:48.689Z,97922.63
2023-04-28T15:34:51.158Z,97920.66
2023-04-28T15:39:53.192Z,97921.81
2023-04-28T15:44:55.007Z,97914.00
2023-04-28T15:50:01.222Z,97896.09
2023-04-28T15:55:03.086Z,97896.06
2023-04-28T16:00:06.853Z,97893.72
2023-04-28T16:05:11.804Z,97892.97
2023-04-28T16:10:16.109Z,97881.25
2023-04-28T16:15:18.383Z,97885.19
2023-04-28T16:20:20.166Z,97878.94
2023-04-28T16:25:22.280Z,97885.91
2023-04-28T16:30:24.276Z,97882.03
2023-04-28T16:35:26.537Z,97875.78
2023-04-28T16:40:28.897Z,97875.03
2023-04-28T16:45:30.693Z,97876.56
2023-04-28T16:50:33.128Z,97860.97
2023-04-28T16:55:36.684Z,97846.16
2023-04-28T17:00:39.541Z,97855.50
2023-04-28T17:05:41.583Z,97853.16
2023-04-28T17:10:43.398Z,97845.78
2023-04-28T17:15:45.303Z,97839.13
2023-04-28T17:20:48.202Z,97837.56
2023-04-28T17:25:50.044Z,97837.56
2023-04-28T17:30:53.002Z,97830.56
2023-04-28T17:35:55.259Z,97842.25
2023-04-28T17:40:57.393Z,97842.22
2023-04-28T17:45:59.252Z,97841.06
2023-04-28T17:51:01.296Z,97839.50
2023-04-28T17:56:03.260Z,97830.56
2023-04-28T18:01:06.719Z,97827.03
2023-04-28T18:06:08.973Z,97844.56
2023-04-28T18:11:11.232Z,97837.53
2023-04-28T18:16:15.074Z,97835.97
2023-04-28T18:21:17.093Z,97834.41
2023-04-28T18:26:19.149Z,97841.41
2023-04-28T18:31:21.257Z,97842.59
2023-04-28T18:36:23.641Z,97834.78
2023-04-28T18:41:25.464Z,97835.56
2023-04-28T18:46:29.442Z,97826.59
2023-04-28T18:51:31.404Z,97831.66
2023-04-28T18:56:33.392Z,97827.38
2023-04-28T19:01:35.500Z,97835.97
2023-04-28T19:06:37.373Z,97840.25
2023-04-28T19:11:39.253Z,97849.59
2023-04-28T19:16:41.198Z,97851.53
2023-04-28T19:21:44.614Z,97839.06
2023-04-28T19:26:46.437Z,97843.72
2023-04-28T19:31:49.084Z,97838.28
2023-04-28T19:36:51.296Z,97842.94
2023-04-28T19:41:54.589Z,97845.31
2023-04-28T19:46:56.418Z,97836.00
2023-04-28T19:51:58.567Z,97832.47
2023-04-28T19:57:01.853Z,97827.81
2023-04-28T20:02:07.817Z,97822.75
2023-04-28T20:07:10.572Z,97827.00
2023-04-28T20:12:12.563Z,97828.94
2023-04-28T20:17:16.294Z,97807.06
2023-04-28T20:22:18.163Z,97812.91
2023-04-28T20:27:20.058Z,97811.75
2023-04-28T20:32:23.640Z,97812.56
2023-04-28T20:37:26.486Z,97802.47
2023-04-28T20:42:28.821Z,97797.03
2023-04-28T20:47:31.102Z,97793.09
2023-04-28T20:52:33.606Z,97785.28
2023-04-28T20:57:36.548Z,97791.50
2023-04-28T21:02:41.712Z,97788.75
2023-04-28T21:07:44.297Z,97785.66
2023-04-28T21:12:46.724Z,97780.59
2023-04-28T21:17:48.509Z,97788.38
2023-04-28T21:22:50.295Z,97786.78
2023-04-28T21:27:53.142Z,97785.22
2023-04-28T21:32:55.521Z,97781.72
2023-04-28T21:37:57.524Z,97772.75
2023-04-28T21:42:59.510Z,97773.13
2023-04-28T21:48:01.396Z,97770.41
2023-04-28T21:53:03.626Z,97764.53
2023-04-28T21:58:05.692Z,97768.84
2023-04-28T22:03:07.790Z,97779.75
2023-04-28T22:08:09.746Z,97775.06
2023-04-28T22:13:12.836Z,97768.47
2023-04-28T22:18:14.607Z,97768.47
2023-04-28T22:23:16.677Z,97745.53
2023-04-28T22:28:18.498Z,97733.06
2023-04-28T22:33:20.394Z,97741.59
2023-04-28T22:38:22.218Z,97744.38
2023-04-28T22:43:23.995Z,97751.75
2023-04-28T22:48:25.821Z,97767.72
2023-04-28T22:53:27.734Z,97775.13
2023-04-28T22:58:29.578Z,97768.88
2023-04-28T23:03:31.672Z,97761.13
2023-04-28T23:08:35.301Z,97748.69
2023-04-28T23:13:37.297Z,97751.00
2023-04-28T23:18:39.692Z,97736.19
2023-04-28T23:23:41.475Z,97731.88
2023-04-28T23:28:43.313Z,97721.38
2023-04-28T23:33:45.316Z,97721.38
2023-04-28T23:38:47.324Z,97712.38
2023-04-28T23:43:49.302Z,97724.41
2023-04-28T23:48:51.181Z,97729.44
2023-04-28T23:53:53.048Z,97731.38
2023-04-28T23:58:54.837Z,97723.19
